Map

Track Data

SID SEASON NUMBER BASIN SUBBASIN NAME ISO_TIME NATURE LAT LON WMO_WIND WMO_PRES WMO_AGENCY TRACK_TYPE DIST2LAND LANDFALL IFLAG USA_AGENCY USA_ATCF_ID USA_LAT USA_LON USA_RECORD USA_STATUS USA_WIND USA_PRES USA_SSHS USA_R34_NE USA_R34_SE USA_R34_SW USA_R34_NW USA_R50_NE USA_R50_SE USA_R50_SW USA_R50_NW USA_R64_NE USA_R64_SE USA_R64_SW USA_R64_NW USA_POCI USA_ROCI USA_RMW USA_EYE TOKYO_LAT TOKYO_LON TOKYO_GRADE TOKYO_WIND TOKYO_PRES TOKYO_R50_DIR TOKYO_R50_LONG TOKYO_R50_SHORT TOKYO_R30_DIR TOKYO_R30_LONG TOKYO_R30_SHORT TOKYO_LAND CMA_LAT CMA_LON CMA_CAT CMA_WIND CMA_PRES HKO_LAT HKO_LON HKO_CAT HKO_WIND HKO_PRES NEWDELHI_LAT NEWDELHI_LON NEWDELHI_GRADE NEWDELHI_WIND NEWDELHI_PRES NEWDELHI_CI NEWDELHI_DP NEWDELHI_POCI REUNION_LAT REUNION_LON REUNION_TYPE REUNION_WIND REUNION_PRES REUNION_TNUM REUNION_CI REUNION_RMW REUNION_R34_NE REUNION_R34_SE REUNION_R34_SW REUNION_R34_NW REUNION_R50_NE REUNION_R50_SE REUNION_R50_SW REUNION_R50_NW REUNION_R64_NE REUNION_R64_SE REUNION_R64_SW REUNION_R64_NW BOM_LAT BOM_LON BOM_TYPE BOM_WIND BOM_PRES BOM_TNUM BOM_CI BOM_RMW BOM_R34_NE BOM_R34_SE BOM_R34_SW BOM_R34_NW BOM_R50_NE BOM_R50_SE BOM_R50_SW BOM_R50_NW BOM_R64_NE BOM_R64_SE BOM_R64_SW BOM_R64_NW BOM_ROCI BOM_POCI BOM_EYE BOM_POS_METHOD BOM_PRES_METHOD NADI_LAT NADI_LON NADI_CAT NADI_WIND NADI_PRES WELLINGTON_LAT WELLINGTON_LON WELLINGTON_WIND WELLINGTON_PRES DS824_LAT DS824_LON DS824_STAGE DS824_WIND DS824_PRES TD9636_LAT TD9636_LON TD9636_STAGE TD9636_WIND TD9636_PRES TD9635_LAT TD9635_LON TD9635_WIND TD9635_PRES TD9635_ROCI NEUMANN_LAT NEUMANN_LON NEUMANN_CLASS NEUMANN_WIND NEUMANN_PRES MLC_LAT MLC_LON MLC_CLASS MLC_WIND MLC_PRES USA_GUST BOM_GUST BOM_GUST_PER REUNION_GUST REUNION_GUST_PER USA_SEAHGT USA_SEARAD_NE USA_SEARAD_SE USA_SEARAD_SW USA_SEARAD_NW STORM_SPEED STORM_DIR
1972268N09203 1972 101 EP CP JUNE 1972-09-24 00:00:00 TS 9.00000 -157.000 25 hurdat_epa main 1117 1081 O________O____ hurdat_epa CP011972 9.00000 -157.000 TD 25 -1 9.00000 -157.000 TC 25 13 307
1972268N09203 1972 101 EP CP JUNE 1972-09-24 03:00:00 TS 9.38265 -157.507 main 1081 1056 P________P____ CP011972 9.38265 -157.507 TD 25 -1 9.38265 -157.507 TC 25 12 305
1972268N09203 1972 101 EP CP JUNE 1972-09-24 06:00:00 TS 9.70000 -158.000 25 hurdat_epa main 1059 1045 O________O____ hurdat_epa CP011972 9.70000 -158.000 TD 25 -1 9.70000 -158.000 TC 25 11 299
1972268N09203 1972 101 EP CP JUNE 1972-09-24 09:00:00 TS 9.91493 -158.465 main 1051 1040 P________P____ CP011972 9.91493 -158.465 TD 25 -1 9.91493 -158.465 TC 25 10 294
1972268N09203 1972 101 EP CP JUNE 1972-09-24 12:00:00 TS 10.1000 -158.900 25 hurdat_epa main 1043 1033 O________O____ hurdat_epa CP011972 10.1000 -158.900 TD 25 -1 10.1000 -158.900 TC 25 9 297
1972268N09203 1972 101 EP CP JUNE 1972-09-24 15:00:00 TS 10.3424 -159.308 main 1037 1019 P________P____ CP011972 10.3424 -159.308 TD 25 -1 10.3424 -159.308 TC 25 9 302
1972268N09203 1972 101 EP CP JUNE 1972-09-24 18:00:00 TS 10.6000 -159.700 25 hurdat_epa main 1023 1017 O________O____ hurdat_epa CP011972 10.6000 -159.700 TD 25 -1 10.6000 -159.700 TC 25 9 303
1972268N09203 1972 101 EP CP JUNE 1972-09-24 21:00:00 TS 10.8424 -160.085 main 1022 1008 P________P____ CP011972 10.8424 -160.085 TD 25 -1 10.8424 -160.085 TC 25 9 302
1972268N09203 1972 101 EP CP JUNE 1972-09-25 00:00:00 TS 11.1000 -160.500 25 hurdat_epa main 1013 1007 O________O____ hurdat_epa CP011972 11.1000 -160.500 TD 25 -1 11.1000 -160.500 TC 25 11 302
1972268N09203 1972 101 EP CP JUNE 1972-09-25 03:00:00 TS 11.4000 -160.992 main 1013 1007 P________P____ CP011972 11.4000 -160.992 TD 27 -1 11.4000 -160.992 TC 27 12 301
1972268N09203 1972 101 EP CP JUNE 1972-09-25 06:00:00 TS 11.7000 -161.500 30 hurdat_epa main 1017 1015 O________O____ hurdat_epa CP011972 11.7000 -161.500 TD 30 -1 11.7000 -161.500 TC 30 11 300
1972268N09203 1972 101 EP CP JUNE 1972-09-25 09:00:00 TS 11.9574 -161.965 main 1025 1024 P________P____ CP011972 11.9574 -161.965 TD 30 -1 11.9574 -161.965 TC 30 10 300
1972268N09203 1972 101 EP CP JUNE 1972-09-25 12:00:00 TS 12.2000 -162.400 30 hurdat_epa main 1037 1037 O________O____ hurdat_epa CP011972 12.2000 -162.400 TD 30 -1 12.2000 -162.400 TC 30 10 302
1972268N09203 1972 101 EP CP JUNE 1972-09-25 15:00:00 TS 12.4649 -162.808 main 1044 1043 P________P____ CP011972 12.4649 -162.808 TD 30 -1 12.4649 -162.808 TC 30 9 303
1972268N09203 1972 101 EP CP JUNE 1972-09-25 18:00:00 TS 12.7000 -163.200 30 hurdat_epa main 1059 1059 O________O____ hurdat_epa CP011972 12.7000 -163.200 TD 30 -1 12.7000 -163.200 TC 30 9 296
1972268N09203 1972 101 EP CP JUNE 1972-09-25 21:00:00 TS 12.8424 -163.600 main 1083 1076 P________P____ CP011972 12.8424 -163.600 TD 30 -1 12.8424 -163.600 TC 30 8 291
1972268N09203 1972 101 EP CP JUNE 1972-09-26 00:00:00 TS 13.0000 -164.000 30 hurdat_epa main 1100 1088 O________O____ hurdat_epa CP011972 13.0000 -164.000 TD 30 -1 13.0000 -164.000 TC 30 9 300
1972268N09203 1972 101 EP CP JUNE 1972-09-26 03:00:00 TS 13.2999 -164.400 main 1088 1073 P________P____ CP011972 13.2999 -164.400 TD 30 -1 13.2999 -164.400 TC 30 10 308
1972268N09203 1972 101 EP CP JUNE 1972-09-26 06:00:00 TS 13.6000 -164.800 30 hurdat_epa main 1078 1073 O________O____ hurdat_epa CP011972 13.6000 -164.800 TD 30 -1 13.6000 -164.800 TC 30 9 300
1972268N09203 1972 101 EP CP JUNE 1972-09-26 09:00:00 TS 13.7650 -165.215 main 1080 1080 P________P____ CP011972 13.7650 -165.215 TD 30 -1 13.7650 -165.215 TC 30 8 291
1972268N09203 1972 101 EP CP JUNE 1972-09-26 12:00:00 TS 13.9000 -165.600 30 hurdat_epa main 1094 1090 O________O____ hurdat_epa CP011972 13.9000 -165.600 TD 30 -1 13.9000 -165.600 TC 30 8 296
1972268N09203 1972 101 EP CP JUNE 1972-09-26 15:00:00 TS 14.0924 -165.923 main 1093 1088 P________P____ CP011972 14.0924 -165.923 TD 40 0 14.0924 -165.923 TC 40 7 305
1972268N09203 1972 101 EP CP JUNE 1972-09-26 18:00:00 TS 14.2941 -166.188 50 hurdat_epa main 1094 1090 O________O____ hurdat_epa CP011972 14.3000 -166.200 TS 50 0 14.3000 -166.200 TC 50 6 309
1972268N09203 1972 101 EP CP JUNE 1972-09-26 21:00:00 TS 14.4863 -166.424 main 1090 1086 P________P____ CP011972 14.4849 -166.450 TS 50 0 14.4849 -166.450 TC 50 6 312
1972268N09203 1972 101 EP CP JUNE 1972-09-27 00:00:00 TS 14.7158 -166.668 50 hurdat_epa main 1093 1083 O________O____ hurdat_epa CP011972 14.7000 -166.700 TS 50 0 14.7000 -166.700 TC 50 7 317
1972268N09203 1972 101 EP CP JUNE 1972-09-27 03:00:00 TS 15.0153 -166.935 main 1083 1081 P________P____ CP011972 14.9922 -166.940 TS 50 0 14.9922 -166.940 TC 50 9 314
1972268N09203 1972 101 EP CP JUNE 1972-09-27 06:00:00 TS 15.3200 -167.320 50 hurdat_epa main 1088 1088 O________O____ hurdat_epa CP011972 15.3000 -167.300 TS 50 0 15.3000 -167.300 TC 50 11 301
1972268N09203 1972 101 EP CP JUNE 1972-09-27 09:00:00 TS 15.5778 -167.922 main 1112 1112 P________P____ CP011972 15.5579 -167.927 TS 45 0 15.5579 -167.927 TC 45 13 293
1972268N09203 1972 101 EP CP JUNE 1972-09-27 12:00:00 TS 15.8200 -168.560 40 hurdat_epa main 1156 1149 O________O____ hurdat_epa CP011972 15.8000 -168.600 TS 40 0 15.8000 -168.600 TC 40 12 295
1972268N09203 1972 101 EP CP JUNE 1972-09-27 15:00:00 TS 16.0772 -169.034 main 1170 1170 P________P____ CP011972 16.0572 -169.080 TS 40 0 16.0572 -169.080 TC 40 10 300
1972268N09203 1972 101 EP CP JUNE 1972-09-27 18:00:00 TS 16.3200 -169.460 40 hurdat_epa main 1201 1195 O________O____ hurdat_epa CP011972 16.3000 -169.500 TS 40 0 16.3000 -169.500 TC 40 10 298
1972268N09203 1972 101 EP CP JUNE 1972-09-27 21:00:00 TS 16.5303 -169.909 main 1225 1225 P________P____ CP011972 16.5103 -169.940 TS 35 0 16.5103 -169.940 TC 35 10 294
1972268N09203 1972 101 EP CP JUNE 1972-09-28 00:00:00 TS 16.7200 -170.380 30 hurdat_epa main 1259 O________O____ hurdat_epa CP011972 16.7000 -170.400 TD 30 -1 16.7000 -170.400 TC 30 10 293

About IBTrACS Database

This database is a web-friendly format of International Best Track Archive for Climate Stewardship (IBTrACS), a global best track data archive curated by NOAA dating back to 1842.

Updated: 2021-11-26